sensor_id;sensor_type;location;lat;lon;timestamp;pressure;altitude;pressure_sealevel;temperature
43802;BMP280;29429;51.074;13.764;2023-06-10T00:02:27;99796.78;;;19.66
43802;BMP280;29429;51.074;13.764;2023-06-10T00:04:55;99792.41;;;19.60
43802;BMP280;29429;51.074;13.764;2023-06-10T00:07:24;99805.66;;;19.51
43802;BMP280;29429;51.074;13.764;2023-06-10T00:09:52;99805.84;;;19.44
43802;BMP280;29429;51.074;13.764;2023-06-10T00:12:19;99798.84;;;19.49
43802;BMP280;29429;51.074;13.764;2023-06-10T00:14:47;99805.84;;;19.44
43802;BMP280;29429;51.074;13.764;2023-06-10T00:17:17;99800.97;;;19.41
43802;BMP280;29429;51.074;13.764;2023-06-10T00:19:45;99803.06;;;19.34
43802;BMP280;29429;51.074;13.764;2023-06-10T00:22:13;99805.16;;;19.27
43802;BMP280;29429;51.074;13.764;2023-06-10T00:24:41;99806.22;;;19.21
43802;BMP280;29429;51.074;13.764;2023-06-10T00:27:09;99807.25;;;19.15
43802;BMP280;29429;51.074;13.764;2023-06-10T00:29:37;99813.13;;;19.07
43802;BMP280;29429;51.074;13.764;2023-06-10T00:32:06;99815.25;;;19.00
43802;BMP280;29429;51.074;13.764;2023-06-10T00:34:34;99808.25;;;19.04
43802;BMP280;29429;51.074;13.764;2023-06-10T00:37:02;99818.59;;;19.12
43802;BMP280;29429;51.074;13.764;2023-06-10T00:39:30;99815.91;;;19.17
43802;BMP280;29429;51.074;13.764;2023-06-10T00:41:57;99827.81;;;19.16
43802;BMP280;29429;51.074;13.764;2023-06-10T00:44:26;99831.28;;;19.12
43802;BMP280;29429;51.074;13.764;2023-06-10T00:46:54;99832.72;;;19.19
43802;BMP280;29429;51.074;13.764;2023-06-10T00:49:23;99835.69;;;19.23
43802;BMP280;29429;51.074;13.764;2023-06-10T00:51:51;99830.06;;;19.24
43802;BMP280;29429;51.074;13.764;2023-06-10T00:54:20;99838.41;;;19.23
43802;BMP280;29429;51.074;13.764;2023-06-10T00:56:48;99843.53;;;19.19
43802;BMP280;29429;51.074;13.764;2023-06-10T00:59:15;99848.94;;;19.19
43802;BMP280;29429;51.074;13.764;2023-06-10T01:01:43;99854.88;;;19.16
43802;BMP280;29429;51.074;13.764;2023-06-10T01:04:11;99858.91;;;19.14
43802;BMP280;29429;51.074;13.764;2023-06-10T01:07:03;99860.22;;;19.11
43802;BMP280;29429;51.074;13.764;2023-06-10T01:09:54;99869.41;;;19.10
43802;BMP280;29429;51.074;13.764;2023-06-10T01:13:01;99873.94;;;19.05
43802;BMP280;29429;51.074;13.764;2023-06-10T01:15:31;99873.09;;;18.99
43802;BMP280;29429;51.074;13.764;2023-06-10T01:18:03;99876.88;;;18.98
43802;BMP280;29429;51.074;13.764;2023-06-10T01:20:32;99870.06;;;18.96
43802;BMP280;29429;51.074;13.764;2023-06-10T01:23:01;99872.22;;;18.94
43802;BMP280;29429;51.074;13.764;2023-06-10T01:25:31;99875.44;;;18.91
43802;BMP280;29429;51.074;13.764;2023-06-10T01:33:35;99883.75;;;18.84
43802;BMP280;29429;51.074;13.764;2023-06-10T01:36:03;99881.56;;;18.81
43802;BMP280;29429;51.074;13.764;2023-06-10T01:38:39;99878.03;;;18.80
43802;BMP280;29429;51.074;13.764;2023-06-10T01:41:08;99878.00;;;18.75
43802;BMP280;29429;51.074;13.764;2023-06-10T01:43:38;99884.72;;;18.73
43802;BMP280;29429;51.074;13.764;2023-06-10T01:46:06;99889.56;;;18.71
43802;BMP280;29429;51.074;13.764;2023-06-10T01:48:34;99890.34;;;18.66
43802;BMP280;29429;51.074;13.764;2023-06-10T01:51:02;99898.63;;;18.60
43802;BMP280;29429;51.074;13.764;2023-06-10T01:53:29;99899.13;;;18.57
43802;BMP280;29429;51.074;13.764;2023-06-10T01:55:57;99896.13;;;18.53
43802;BMP280;29429;51.074;13.764;2023-06-10T01:58:24;99903.38;;;18.48
43802;BMP280;29429;51.074;13.764;2023-06-10T02:00:52;99907.59;;;18.44
43802;BMP280;29429;51.074;13.764;2023-06-10T02:03:19;99895.69;;;18.40
43802;BMP280;29429;51.074;13.764;2023-06-10T02:05:47;99905.34;;;18.36
43802;BMP280;29429;51.074;13.764;2023-06-10T02:08:16;99906.66;;;18.33
43802;BMP280;29429;51.074;13.764;2023-06-10T02:10:43;99903.91;;;18.28
43802;BMP280;29429;51.074;13.764;2023-06-10T02:13:11;99907.34;;;18.23
43802;BMP280;29429;51.074;13.764;2023-06-10T02:15:38;99905.66;;;18.17
43802;BMP280;29429;51.074;13.764;2023-06-10T02:18:06;99917.75;;;18.15
43802;BMP280;29429;51.074;13.764;2023-06-10T02:20:33;99919.09;;;18.12
43802;BMP280;29429;51.074;13.764;2023-06-10T02:23:03;99922.28;;;18.09
43802;BMP280;29429;51.074;13.764;2023-06-10T02:25:30;99916.81;;;18.04
43802;BMP280;29429;51.074;13.764;2023-06-10T02:27:58;99918.94;;;18.02
43802;BMP280;29429;51.074;13.764;2023-06-10T02:30:25;99929.41;;;17.99
43802;BMP280;29429;51.074;13.764;2023-06-10T02:32:53;99928.03;;;17.96
43802;BMP280;29429;51.074;13.764;2023-06-10T02:35:20;99931.22;;;17.93
43802;BMP280;29429;51.074;13.764;2023-06-10T02:37:52;99930.91;;;17.90
43802;BMP280;29429;51.074;13.764;2023-06-10T02:40:20;99923.56;;;17.85
43802;BMP280;29429;51.074;13.764;2023-06-10T02:42:47;99923.00;;;17.83
43802;BMP280;29429;51.074;13.764;2023-06-10T02:45:15;99921.84;;;17.79
43802;BMP280;29429;51.074;13.764;2023-06-10T02:47:44;99921.75;;;17.74
43802;BMP280;29429;51.074;13.764;2023-06-10T02:50:12;99915.25;;;17.70
43802;BMP280;29429;51.074;13.764;2023-06-10T02:52:50;99921.13;;;17.67
43802;BMP280;29429;51.074;13.764;2023-06-10T02:55:17;99919.25;;;17.68
43802;BMP280;29429;51.074;13.764;2023-06-10T02:57:50;99911.38;;;17.66
43802;BMP280;29429;51.074;13.764;2023-06-10T03:00:20;99915.16;;;17.65
43802;BMP280;29429;51.074;13.764;2023-06-10T03:02:49;99914.00;;;17.61
43802;BMP280;29429;51.074;13.764;2023-06-10T03:05:19;99915.91;;;17.60
43802;BMP280;29429;51.074;13.764;2023-06-10T03:07:49;99915.81;;;17.55
43802;BMP280;29429;51.074;13.764;2023-06-10T03:10:17;99922.16;;;17.49
43802;BMP280;29429;51.074;13.764;2023-06-10T03:12:44;99919.41;;;17.44
43802;BMP280;29429;51.074;13.764;2023-06-10T03:15:12;99924.44;;;17.41
43802;BMP280;29429;51.074;13.764;2023-06-10T03:17:40;99927.63;;;17.38
43802;BMP280;29429;51.074;13.764;2023-06-10T03:20:09;99930.66;;;17.41
43802;BMP280;29429;51.074;13.764;2023-06-10T03:22:39;99927.72;;;17.43
43802;BMP280;29429;51.074;13.764;2023-06-10T03:25:09;99932.28;;;17.42
43802;BMP280;29429;51.074;13.764;2023-06-10T03:27:43;99926.25;;;17.35
43802;BMP280;29429;51.074;13.764;2023-06-10T03:30:13;99938.47;;;17.26
43802;BMP280;29429;51.074;13.764;2023-06-10T03:32:42;99933.00;;;17.21
43802;BMP280;29429;51.074;13.764;2023-06-10T03:35:12;99928.81;;;17.14
43802;BMP280;29429;51.074;13.764;2023-06-10T03:37:41;99926.22;;;17.19
43802;BMP280;29429;51.074;13.764;2023-06-10T03:40:09;99936.53;;;17.22
43802;BMP280;29429;51.074;13.764;2023-06-10T03:42:38;99939.31;;;17.27
43802;BMP280;29429;51.074;13.764;2023-06-10T03:45:07;99938.81;;;17.30
43802;BMP280;29429;51.074;13.764;2023-06-10T03:47:37;99944.78;;;17.32
43802;BMP280;29429;51.074;13.764;2023-06-10T03:50:08;99935.72;;;17.38
43802;BMP280;29429;51.074;13.764;2023-06-10T03:52:38;99943.66;;;17.44
43802;BMP280;29429;51.074;13.764;2023-06-10T03:55:08;99946.94;;;17.46
43802;BMP280;29429;51.074;13.764;2023-06-10T03:57:36;99947.75;;;17.47
43802;BMP280;29429;51.074;13.764;2023-06-10T04:00:03;99956.81;;;17.41
43802;BMP280;29429;51.074;13.764;2023-06-10T04:02:41;99945.84;;;17.31
43802;BMP280;29429;51.074;13.764;2023-06-10T04:05:29;99949.25;;;17.26
43802;BMP280;29429;51.074;13.764;2023-06-10T04:07:57;99956.88;;;17.29
43802;BMP280;29429;51.074;13.764;2023-06-10T04:10:25;99955.47;;;17.27
43802;BMP280;29429;51.074;13.764;2023-06-10T04:12:53;99963.56;;;17.27
43802;BMP280;29429;51.074;13.764;2023-06-10T04:15:23;99963.16;;;17.35
43802;BMP280;29429;51.074;13.764;2023-06-10T04:17:50;99959.59;;;17.46
43802;BMP280;29429;51.074;13.764;2023-06-10T04:20:21;99953.56;;;17.55
43802;BMP280;29429;51.074;13.764;2023-06-10T04:22:49;99957.25;;;17.66
43802;BMP280;29429;51.074;13.764;2023-06-10T04:25:16;99946.78;;;17.70
43802;BMP280;29429;51.074;13.764;2023-06-10T04:27:44;99951.44;;;17.74
43802;BMP280;29429;51.074;13.764;2023-06-10T04:30:12;99951.63;;;17.84
43802;BMP280;29429;51.074;13.764;2023-06-10T04:32:40;99953.91;;;17.92
43802;BMP280;29429;51.074;13.764;2023-06-10T04:35:14;99961.06;;;18.03
43802;BMP280;29429;51.074;13.764;2023-06-10T04:37:42;99955.00;;;18.13
43802;BMP280;29429;51.074;13.764;2023-06-10T04:40:11;99954.81;;;18.19
43802;BMP280;29429;51.074;13.764;2023-06-10T04:42:38;99956.94;;;18.17
43802;BMP280;29429;51.074;13.764;2023-06-10T04:45:07;99957.28;;;18.21
43802;BMP280;29429;51.074;13.764;2023-06-10T04:47:35;99955.13;;;18.23
43802;BMP280;29429;51.074;13.764;2023-06-10T04:50:04;99962.25;;;18.29
43802;BMP280;29429;51.074;13.764;2023-06-10T04:52:32;99959.91;;;18.38
43802;BMP280;29429;51.074;13.764;2023-06-10T04:55:01;99956.00;;;18.45
43802;BMP280;29429;51.074;13.764;2023-06-10T04:57:29;99960.97;;;18.53
43802;BMP280;29429;51.074;13.764;2023-06-10T04:59:56;99960.22;;;18.58
43802;BMP280;29429;51.074;13.764;2023-06-10T05:02:24;99957.03;;;18.61
43802;BMP280;29429;51.074;13.764;2023-06-10T05:04:51;99964.16;;;18.72
43802;BMP280;29429;51.074;13.764;2023-06-10T05:07:20;99956.44;;;18.80
43802;BMP280;29429;51.074;13.764;2023-06-10T05:09:48;99951.94;;;18.91
43802;BMP280;29429;51.074;13.764;2023-06-10T05:12:15;99961.25;;;19.00
43802;BMP280;29429;51.074;13.764;2023-06-10T05:14:42;99963.00;;;19.11
43802;BMP280;29429;51.074;13.764;2023-06-10T05:17:11;99959.84;;;19.19
43802;BMP280;29429;51.074;13.764;2023-06-10T05:19:40;99958.03;;;19.30
43802;BMP280;29429;51.074;13.764;2023-06-10T05:22:08;99960.50;;;19.36
43802;BMP280;29429;51.074;13.764;2023-06-10T05:24:36;99960.34;;;19.43
43802;BMP280;29429;51.074;13.764;2023-06-10T05:27:03;99958.78;;;19.52
43802;BMP280;29429;51.074;13.764;2023-06-10T05:29:31;99957.22;;;19.56
43802;BMP280;29429;51.074;13.764;2023-06-10T05:31:59;99964.50;;;19.56
43802;BMP280;29429;51.074;13.764;2023-06-10T05:34:30;99960.19;;;19.60
43802;BMP280;29429;51.074;13.764;2023-06-10T05:36:58;99964.38;;;19.72
43802;BMP280;29429;51.074;13.764;2023-06-10T05:39:25;99971.47;;;19.83
43802;BMP280;29429;51.074;13.764;2023-06-10T05:41:52;99965.06;;;19.94
43802;BMP280;29429;51.074;13.764;2023-06-10T05:44:19;99960.28;;;20.07
43802;BMP280;29429;51.074;13.764;2023-06-10T05:47:42;99966.59;;;20.17
43802;BMP280;29429;51.074;13.764;2023-06-10T05:50:09;99966.03;;;20.20
43802;BMP280;29429;51.074;13.764;2023-06-10T05:52:37;99959.91;;;20.30
43802;BMP280;29429;51.074;13.764;2023-06-10T05:55:04;99961.28;;;20.37
43802;BMP280;29429;51.074;13.764;2023-06-10T05:57:32;99965.41;;;20.45
43802;BMP280;29429;51.074;13.764;2023-06-10T05:59:59;99969.22;;;20.49
43802;BMP280;29429;51.074;13.764;2023-06-10T06:02:26;99973.03;;;20.53
43802;BMP280;29429;51.074;13.764;2023-06-10T06:04:54;99966.81;;;20.57
43802;BMP280;29429;51.074;13.764;2023-06-10T06:07:22;99967.91;;;20.61
43802;BMP280;29429;51.074;13.764;2023-06-10T06:09:49;99964.69;;;20.70
43802;BMP280;29429;51.074;13.764;2023-06-10T06:12:17;99962.53;;;20.77
43802;BMP280;29429;51.074;13.764;2023-06-10T06:14:44;99973.72;;;20.90
43802;BMP280;29429;51.074;13.764;2023-06-10T06:17:12;99969.13;;;21.06
43802;BMP280;29429;51.074;13.764;2023-06-10T06:19:39;99967.03;;;21.18
43802;BMP280;29429;51.074;13.764;2023-06-10T06:22:06;99971.13;;;21.31
43802;BMP280;29429;51.074;13.764;2023-06-10T06:24:33;99966.00;;;21.44
43802;BMP280;29429;51.074;13.764;2023-06-10T06:27:00;99964.88;;;21.50
43802;BMP280;29429;51.074;13.764;2023-06-10T06:29:27;99970.31;;;21.50
43802;BMP280;29429;51.074;13.764;2023-06-10T06:31:57;99958.38;;;21.51
43802;BMP280;29429;51.074;13.764;2023-06-10T06:34:24;99967.63;;;21.60
43802;BMP280;29429;51.074;13.764;2023-06-10T06:36:51;99967.34;;;21.72
43802;BMP280;29429;51.074;13.764;2023-06-10T06:39:19;99968.44;;;21.86
43802;BMP280;29429;51.074;13.764;2023-06-10T06:41:46;99967.06;;;22.04
43802;BMP280;29429;51.074;13.764;2023-06-10T06:44:14;99962.16;;;22.21
43802;BMP280;29429;51.074;13.764;2023-06-10T06:46:44;99967.81;;;22.29
43802;BMP280;29429;51.074;13.764;2023-06-10T06:49:12;99972.16;;;22.35
43802;BMP280;29429;51.074;13.764;2023-06-10T06:51:39;99978.69;;;22.39
43802;BMP280;29429;51.074;13.764;2023-06-10T06:54:10;99978.38;;;22.46
43802;BMP280;29429;51.074;13.764;2023-06-10T06:56:39;99978.38;;;22.46
43802;BMP280;29429;51.074;13.764;2023-06-10T06:59:06;99975.13;;;22.44
43802;BMP280;29429;51.074;13.764;2023-06-10T07:01:34;99986.25;;;22.53
43802;BMP280;29429;51.074;13.764;2023-06-10T07:04:02;99995.22;;;22.63
43802;BMP280;29429;51.074;13.764;2023-06-10T07:06:30;100000.34;;;22.70
43802;BMP280;29429;51.074;13.764;2023-06-10T07:08:57;99996.53;;;22.76
43802;BMP280;29429;51.074;13.764;2023-06-10T07:11:25;100004.94;;;22.79
43802;BMP280;29429;51.074;13.764;2023-06-10T07:13:53;100003.56;;;22.82
43802;BMP280;29429;51.074;13.764;2023-06-10T07:16:21;100001.88;;;22.91
43802;BMP280;29429;51.074;13.764;2023-06-10T07:18:48;100006.19;;;23.02
43802;BMP280;29429;51.074;13.764;2023-06-10T07:21:16;100005.03;;;23.13
43802;BMP280;29429;51.074;13.764;2023-06-10T07:23:44;100002.25;;;23.23
43802;BMP280;29429;51.074;13.764;2023-06-10T07:26:12;99999.25;;;23.30
43802;BMP280;29429;51.074;13.764;2023-06-10T07:28:40;100007.38;;;23.35
43802;BMP280;29429;51.074;13.764;2023-06-10T07:31:08;100008.72;;;23.42
43802;BMP280;29429;51.074;13.764;2023-06-10T07:33:35;100015.47;;;23.50
43802;BMP280;29429;51.074;13.764;2023-06-10T07:36:03;100012.91;;;23.63
43802;BMP280;29429;51.074;13.764;2023-06-10T07:38:30;100012.84;;;23.74
43802;BMP280;29429;51.074;13.764;2023-06-10T07:40:58;100014.66;;;23.83
43802;BMP280;29429;51.074;13.764;2023-06-10T07:43:25;100009.13;;;23.93
43802;BMP280;29429;51.074;13.764;2023-06-10T07:45:52;100014.00;;;23.96
43802;BMP280;29429;51.074;13.764;2023-06-10T07:48:19;100009.84;;;24.04
43802;BMP280;29429;51.074;13.764;2023-06-10T07:50:46;100015.50;;;24.12
43802;BMP280;29429;51.074;13.764;2023-06-10T07:53:13;100009.31;;;24.31
43802;BMP280;29429;51.074;13.764;2023-06-10T07:55:40;100004.00;;;24.44
43802;BMP280;29429;51.074;13.764;2023-06-10T07:58:07;100004.19;;;24.53
43802;BMP280;29429;51.074;13.764;2023-06-10T08:00:34;100004.75;;;24.50
43802;BMP280;29429;51.074;13.764;2023-06-10T08:03:02;100002.16;;;24.40
43802;BMP280;29429;51.074;13.764;2023-06-10T08:05:30;100002.47;;;24.33
43802;BMP280;29429;51.074;13.764;2023-06-10T08:07:57;100002.72;;;24.37
43802;BMP280;29429;51.074;13.764;2023-06-10T08:10:32;99999.88;;;24.47
43802;BMP280;29429;51.074;13.764;2023-06-10T08:13:21;99998.97;;;24.56
43802;BMP280;29429;51.074;13.764;2023-06-10T08:15:49;100001.06;;;24.64
43802;BMP280;29429;51.074;13.764;2023-06-10T08:18:18;100001.81;;;24.70
43802;BMP280;29429;51.074;13.764;2023-06-10T08:20:45;100005.81;;;24.77
43802;BMP280;29429;51.074;13.764;2023-06-10T08:23:13;100008.78;;;24.81
43802;BMP280;29429;51.074;13.764;2023-06-10T08:25:41;100005.19;;;24.86
43802;BMP280;29429;51.074;13.764;2023-06-10T08:28:08;100010.84;;;24.89
43802;BMP280;29429;51.074;13.764;2023-06-10T08:30:35;100016.78;;;24.96
43802;BMP280;29429;51.074;13.764;2023-06-10T08:33:03;100011.47;;;25.05
43802;BMP280;29429;51.074;13.764;2023-06-10T08:35:30;100022.78;;;25.17
43802;BMP280;29429;51.074;13.764;2023-06-10T08:37:58;100016.50;;;25.16
43802;BMP280;29429;51.074;13.764;2023-06-10T08:40:25;100021.16;;;25.16
43802;BMP280;29429;51.074;13.764;2023-06-10T08:43:10;100016.75;;;25.20
43802;BMP280;29429;51.074;13.764;2023-06-10T08:45:43;100019.69;;;25.23
43802;BMP280;29429;51.074;13.764;2023-06-10T08:48:15;100009.13;;;25.35
43802;BMP280;29429;51.074;13.764;2023-06-10T08:50:45;100011.78;;;25.40
43802;BMP280;29429;51.074;13.764;2023-06-10T08:53:15;100011.66;;;25.51
43802;BMP280;29429;51.074;13.764;2023-06-10T08:55:49;100006.56;;;25.63
43802;BMP280;29429;51.074;13.764;2023-06-10T08:58:19;100004.31;;;25.83
43802;BMP280;29429;51.074;13.764;2023-06-10T09:00:47;99996.66;;;25.99
43802;BMP280;29429;51.074;13.764;2023-06-10T09:03:14;100001.59;;;25.83
43802;BMP280;29429;51.074;13.764;2023-06-10T09:05:42;100000.34;;;25.76
43802;BMP280;29429;51.074;13.764;2023-06-10T09:08:10;99997.66;;;25.71
43802;BMP280;29429;51.074;13.764;2023-06-10T09:10:38;99999.91;;;25.69
43802;BMP280;29429;51.074;13.764;2023-06-10T09:13:06;100001.53;;;25.70
43802;BMP280;29429;51.074;13.764;2023-06-10T09:15:33;99999.81;;;25.74
43802;BMP280;29429;51.074;13.764;2023-06-10T09:18:01;99995.38;;;25.78
43802;BMP280;29429;51.074;13.764;2023-06-10T09:20:29;99997.63;;;25.76
43802;BMP280;29429;51.074;13.764;2023-06-10T09:22:57;99997.38;;;25.72
43802;BMP280;29429;51.074;13.764;2023-06-10T09:25:53;99997.66;;;25.71
43802;BMP280;29429;51.074;13.764;2023-06-10T09:28:49;99997.38;;;25.72
43802;BMP280;29429;51.074;13.764;2023-06-10T09:31:20;99994.56;;;25.77
43802;BMP280;29429;51.074;13.764;2023-06-10T09:33:49;100000.34;;;25.76
43802;BMP280;29429;51.074;13.764;2023-06-10T09:36:23;99998.63;;;25.80
43802;BMP280;29429;51.074;13.764;2023-06-10T09:38:51;100001.66;;;25.78
43802;BMP280;29429;51.074;13.764;2023-06-10T09:41:18;99995.00;;;25.84
43802;BMP280;29429;51.074;13.764;2023-06-10T09:43:46;99989.06;;;25.96
43802;BMP280;29429;51.074;13.764;2023-06-10T09:46:20;99984.88;;;26.17
43802;BMP280;29429;51.074;13.764;2023-06-10T09:48:51;99987.22;;;26.37
43802;BMP280;29429;51.074;13.764;2023-06-10T09:51:19;99984.19;;;26.52
43802;BMP280;29429;51.074;13.764;2023-06-10T09:53:52;99977.09;;;26.65
43802;BMP280;29429;51.074;13.764;2023-06-10T09:56:36;99983.47;;;26.74
43802;BMP280;29429;51.074;13.764;2023-06-10T09:59:04;99978.72;;;26.80
43802;BMP280;29429;51.074;13.764;2023-06-10T10:01:34;99981.88;;;26.87
43802;BMP280;29429;51.074;13.764;2023-06-10T10:04:02;99977.88;;;26.93
43802;BMP280;29429;51.074;13.764;2023-06-10T10:07:04;99989.25;;;27.00
43802;BMP280;29429;51.074;13.764;2023-06-10T10:09:50;99980.94;;;27.05
43802;BMP280;29429;51.074;13.764;2023-06-10T10:12:25;99978.31;;;27.00
43802;BMP280;29429;51.074;13.764;2023-06-10T10:15:09;99977.28;;;26.96
43802;BMP280;29429;51.074;13.764;2023-06-10T10:20:20;99976.19;;;26.83
43802;BMP280;29429;51.074;13.764;2023-06-10T10:22:50;99972.03;;;26.86
43802;BMP280;29429;51.074;13.764;2023-06-10T10:25:28;99979.94;;;26.87
43802;BMP280;29429;51.074;13.764;2023-06-10T10:28:09;99969.91;;;26.83
43802;BMP280;29429;51.074;13.764;2023-06-10T10:30:44;99976.31;;;26.78
43802;BMP280;29429;51.074;13.764;2023-06-10T10:33:13;99983.59;;;26.55
43802;BMP280;29429;51.074;13.764;2023-06-10T10:35:45;99975.88;;;26.57
43802;BMP280;29429;51.074;13.764;2023-06-10T10:38:23;99980.44;;;26.62
43802;BMP280;29429;51.074;13.764;2023-06-10T10:40:51;99982.00;;;26.82
43802;BMP280;29429;51.074;13.764;2023-06-10T10:43:19;99973.44;;;26.97
43802;BMP280;29429;51.074;13.764;2023-06-10T10:45:59;99980.19;;;27.13
43802;BMP280;29429;51.074;13.764;2023-06-10T10:48:32;99975.59;;;27.22
43802;BMP280;29429;51.074;13.764;2023-06-10T10:51:01;99970.88;;;27.36
43802;BMP280;29429;51.074;13.764;2023-06-10T10:53:30;99975.13;;;27.56
43802;BMP280;29429;51.074;13.764;2023-06-10T10:56:08;99968.69;;;27.83
43802;BMP280;29429;51.074;13.764;2023-06-10T10:58:41;99972.22;;;28.05
43802;BMP280;29429;51.074;13.764;2023-06-10T11:01:12;99971.38;;;28.27
43802;BMP280;29429;51.074;13.764;2023-06-10T11:03:49;99964.28;;;28.34
43802;BMP280;29429;51.074;13.764;2023-06-10T11:06:18;99974.25;;;28.22
43802;BMP280;29429;51.074;13.764;2023-06-10T11:08:47;99966.03;;;28.00
43802;BMP280;29429;51.074;13.764;2023-06-10T11:11:28;99975.16;;;27.87
43802;BMP280;29429;51.074;13.764;2023-06-10T11:16:29;99957.13;;;27.94
43802;BMP280;29429;51.074;13.764;2023-06-10T11:18:57;99948.06;;;27.94
43802;BMP280;29429;51.074;13.764;2023-06-10T11:21:25;99950.69;;;27.99
43802;BMP280;29429;51.074;13.764;2023-06-10T11:23:58;99944.16;;;28.08
43802;BMP280;29429;51.074;13.764;2023-06-10T11:31:32;99940.25;;;27.56
43802;BMP280;29429;51.074;13.764;2023-06-10T11:34:02;99941.84;;;27.35
43802;BMP280;29429;51.074;13.764;2023-06-10T11:36:39;99945.13;;;27.37
43802;BMP280;29429;51.074;13.764;2023-06-10T11:39:12;99934.38;;;27.27
43802;BMP280;29429;51.074;13.764;2023-06-10T11:41:40;99934.31;;;27.18
43802;BMP280;29429;51.074;13.764;2023-06-10T11:44:10;99935.34;;;27.09
43802;BMP280;29429;51.074;13.764;2023-06-10T11:46:38;99943.81;;;26.99
43802;BMP280;29429;51.074;13.764;2023-06-10T11:49:09;99942.59;;;27.05
43802;BMP280;29429;51.074;13.764;2023-06-10T11:51:57;99938.69;;;27.06
43802;BMP280;29429;51.074;13.764;2023-06-10T11:54:26;99928.38;;;27.03
43802;BMP280;29429;51.074;13.764;2023-06-10T11:56:58;99933.97;;;26.98
43802;BMP280;29429;51.074;13.764;2023-06-10T11:59:30;99935.81;;;26.89
43802;BMP280;29429;51.074;13.764;2023-06-10T12:01:59;99937.72;;;26.75
43802;BMP280;29429;51.074;13.764;2023-06-10T12:04:26;99933.41;;;26.74
43802;BMP280;29429;51.074;13.764;2023-06-10T12:06:54;99928.59;;;26.93
43802;BMP280;29429;51.074;13.764;2023-06-10T12:09:29;99927.53;;;27.16
43802;BMP280;29429;51.074;13.764;2023-06-10T12:12:03;99924.09;;;27.33
43802;BMP280;29429;51.074;13.764;2023-06-10T12:20:03;99925.63;;;27.92
43802;BMP280;29429;51.074;13.764;2023-06-10T12:22:39;99915.78;;;28.13
43802;BMP280;29429;51.074;13.764;2023-06-10T12:25:08;99918.75;;;28.33
43802;BMP280;29429;51.074;13.764;2023-06-10T12:27:37;99894.75;;;28.56
43802;BMP280;29429;51.074;13.764;2023-06-10T12:30:06;99904.19;;;28.72
43802;BMP280;29429;51.074;13.764;2023-06-10T12:32:45;99889.47;;;28.77
43802;BMP280;29429;51.074;13.764;2023-06-10T12:35:22;99885.13;;;28.67
43802;BMP280;29429;51.074;13.764;2023-06-10T12:38:05;99900.28;;;28.65
43802;BMP280;29429;51.074;13.764;2023-06-10T12:40:38;99892.69;;;28.62
43802;BMP280;29429;51.074;13.764;2023-06-10T12:43:07;99894.59;;;28.61
43802;BMP280;29429;51.074;13.764;2023-06-10T12:45:39;99885.75;;;28.64
43802;BMP280;29429;51.074;13.764;2023-06-10T12:48:20;99888.81;;;28.63
43802;BMP280;29429;51.074;13.764;2023-06-10T12:50:58;99885.56;;;28.61
43802;BMP280;29429;51.074;13.764;2023-06-10T12:53:27;99885.25;;;28.62
43802;BMP280;29429;51.074;13.764;2023-06-10T12:55:54;99882.97;;;28.56
43802;BMP280;29429;51.074;13.764;2023-06-10T12:58:22;99887.34;;;28.65
43802;BMP280;29429;51.074;13.764;2023-06-10T13:00:50;99892.72;;;28.79
43802;BMP280;29429;51.074;13.764;2023-06-10T13:03:20;99883.50;;;28.83
43802;BMP280;29429;51.074;13.764;2023-06-10T13:05:48;99888.19;;;28.91
43802;BMP280;29429;51.074;13.764;2023-06-10T13:08:15;99886.25;;;29.01
43802;BMP280;29429;51.074;13.764;2023-06-10T13:10:43;99881.41;;;29.06
43802;BMP280;29429;51.074;13.764;2023-06-10T13:13:10;99881.59;;;29.10
43802;BMP280;29429;51.074;13.764;2023-06-10T13:15:38;99877.84;;;29.06
43802;BMP280;29429;51.074;13.764;2023-06-10T13:18:10;99881.41;;;28.97
43802;BMP280;29429;51.074;13.764;2023-06-10T13:20:38;99883.03;;;28.98
43802;BMP280;29429;51.074;13.764;2023-06-10T13:23:05;99870.91;;;28.99
43802;BMP280;29429;51.074;13.764;2023-06-10T13:25:33;99881.75;;;28.96
43802;BMP280;29429;51.074;13.764;2023-06-10T13:28:00;99882.53;;;28.96
43802;BMP280;29429;51.074;13.764;2023-06-10T13:30:28;99880.94;;;28.95
43802;BMP280;29429;51.074;13.764;2023-06-10T13:33:08;99884.50;;;28.96
43802;BMP280;29429;51.074;13.764;2023-06-10T13:35:35;99891.28;;;28.98
43802;BMP280;29429;51.074;13.764;2023-06-10T13:38:03;99890.13;;;28.99
43802;BMP280;29429;51.074;13.764;2023-06-10T13:40:30;99884.16;;;28.97
43802;BMP280;29429;51.074;13.764;2023-06-10T13:42:58;99877.53;;;28.90
43802;BMP280;29429;51.074;13.764;2023-06-10T13:45:25;99884.47;;;28.87
43802;BMP280;29429;51.074;13.764;2023-06-10T13:47:53;99879.31;;;28.77
43802;BMP280;29429;51.074;13.764;2023-06-10T13:50:20;99875.09;;;28.71
43802;BMP280;29429;51.074;13.764;2023-06-10T13:52:48;99869.94;;;28.70
43802;BMP280;29429;51.074;13.764;2023-06-10T13:55:16;99872.69;;;28.70
43802;BMP280;29429;51.074;13.764;2023-06-10T13:57:44;99874.91;;;28.68
43802;BMP280;29429;51.074;13.764;2023-06-10T14:00:12;99868.66;;;28.67
43802;BMP280;29429;51.074;13.764;2023-06-10T14:02:41;99873.16;;;28.63
43802;BMP280;29429;51.074;13.764;2023-06-10T14:05:09;99879.75;;;28.62
43802;BMP280;29429;51.074;13.764;2023-06-10T14:07:37;99879.56;;;28.59
43802;BMP280;29429;51.074;13.764;2023-06-10T14:10:05;99889.25;;;28.56
43802;BMP280;29429;51.074;13.764;2023-06-10T14:12:33;99879.38;;;28.47
43802;BMP280;29429;51.074;13.764;2023-06-10T14:15:00;99879.69;;;28.36
43802;BMP280;29429;51.074;13.764;2023-06-10T14:17:28;99879.03;;;28.31
43802;BMP280;29429;51.074;13.764;2023-06-10T14:19:55;99866.75;;;28.28
43802;BMP280;29429;51.074;13.764;2023-06-10T14:22:23;99868.38;;;28.29
43802;BMP280;29429;51.074;13.764;2023-06-10T14:24:50;99866.75;;;28.28
43802;BMP280;29429;51.074;13.764;2023-06-10T14:27:18;99868.81;;;28.23
43802;BMP280;29429;51.074;13.764;2023-06-10T14:29:46;99867.84;;;28.19
43802;BMP280;29429;51.074;13.764;2023-06-10T14:32:13;99856.88;;;28.19